createdAt,value
2019-03-04T00:02:27.647Z,9.80
2019-03-04T00:04:57.571Z,9.90
2019-03-04T00:07:27.454Z,10.00
2019-03-04T00:09:57.297Z,10.17
2019-03-04T00:12:27.165Z,9.50
2019-03-04T00:14:57.025Z,9.50
2019-03-04T00:17:26.865Z,9.70
2019-03-04T00:19:56.749Z,10.47
2019-03-04T00:22:26.557Z,10.40
2019-03-04T00:24:56.397Z,9.83
2019-03-04T00:27:26.235Z,9.47
2019-03-04T00:29:56.034Z,10.53
2019-03-04T00:32:25.917Z,10.57
2019-03-04T00:34:58.642Z,9.67
2019-03-04T00:37:28.627Z,9.97
2019-03-04T00:40:00.047Z,8.80
2019-03-04T00:42:30.003Z,10.07
2019-03-04T00:44:59.849Z,9.17
2019-03-04T00:47:29.713Z,9.43
2019-03-04T00:49:59.538Z,9.07
2019-03-04T00:52:29.381Z,9.23
2019-03-04T00:54:59.634Z,9.03
2019-03-04T00:57:29.464Z,8.50
2019-03-04T00:59:59.316Z,9.03
2019-03-04T01:02:29.203Z,9.00
2019-03-04T01:04:59.053Z,7.57
2019-03-04T01:07:28.933Z,8.30
2019-03-04T01:09:58.796Z,7.80
2019-03-04T01:12:28.649Z,8.20
2019-03-04T01:14:58.528Z,7.70
2019-03-04T01:17:28.362Z,6.93
2019-03-04T01:19:58.189Z,7.37
2019-03-04T01:22:28.120Z,7.33
2019-03-04T01:24:57.959Z,7.00
2019-03-04T01:27:27.859Z,6.80
2019-03-04T01:29:57.696Z,6.73
2019-03-04T01:32:46.925Z,6.47
2019-03-04T01:35:17.909Z,6.07
2019-03-04T01:37:47.712Z,7.27
2019-03-04T01:40:20.544Z,6.77
2019-03-04T01:42:50.413Z,6.10
2019-03-04T01:45:20.186Z,6.50
2019-03-04T01:47:50.062Z,5.87
2019-03-04T01:50:19.985Z,6.20
2019-03-04T01:52:50.345Z,5.87
2019-03-04T01:55:21.577Z,6.23
2019-03-04T01:57:52.992Z,5.73
2019-03-04T02:00:23.444Z,5.57
2019-03-04T02:02:53.292Z,5.63
2019-03-04T02:05:23.377Z,5.57
2019-03-04T02:07:53.258Z,5.03
2019-03-04T02:10:23.176Z,5.37
2019-03-04T02:12:54.571Z,4.80
2019-03-04T02:15:24.822Z,5.00
2019-03-04T02:17:54.613Z,4.60
2019-03-04T02:20:24.549Z,4.53
2019-03-04T02:22:54.454Z,4.63
2019-03-04T02:25:41.978Z,5.07
2019-03-04T02:28:11.809Z,4.70
2019-03-04T02:30:45.521Z,4.90
2019-03-04T02:33:15.529Z,5.17
2019-03-04T02:35:45.576Z,5.07
2019-03-04T02:38:17.074Z,5.20
2019-03-04T02:40:46.933Z,5.37
2019-03-04T02:43:17.773Z,5.60
2019-03-04T02:45:47.590Z,5.10
2019-03-04T02:48:17.518Z,4.90
2019-03-04T02:50:48.460Z,5.67
2019-03-04T02:53:19.290Z,5.20
2019-03-04T02:55:49.078Z,5.03
2019-03-04T02:58:19.649Z,4.77
2019-03-04T03:00:50.975Z,5.20
2019-03-04T03:03:21.827Z,5.67
2019-03-04T03:05:51.854Z,5.60
2019-03-04T03:08:21.754Z,5.30
2019-03-04T03:10:53.210Z,5.80
2019-03-04T03:13:23.070Z,5.40
2019-03-04T03:15:52.901Z,5.50
2019-03-04T03:18:22.890Z,6.30
2019-03-04T03:20:52.806Z,5.90
2019-03-04T03:23:22.705Z,5.10
2019-03-04T03:25:55.558Z,5.63
2019-03-04T03:28:26.259Z,6.03
2019-03-04T03:30:56.042Z,5.50
2019-03-04T03:33:25.830Z,5.60
2019-03-04T03:35:55.729Z,5.20
2019-03-04T03:38:25.562Z,5.03
2019-03-04T03:40:55.431Z,5.80
2019-03-04T03:43:25.262Z,5.70
2019-03-04T03:45:55.035Z,5.57
2019-03-04T03:48:26.818Z,5.33
2019-03-04T03:50:56.704Z,5.50
2019-03-04T03:53:26.596Z,5.70
2019-03-04T03:55:56.425Z,5.90
2019-03-04T03:58:26.247Z,5.83
2019-03-04T04:00:56.072Z,6.73
2019-03-04T04:03:25.862Z,8.00
2019-03-04T04:05:55.715Z,7.20
2019-03-04T04:08:25.555Z,6.50
2019-03-04T04:10:55.427Z,6.93
2019-03-04T04:13:28.054Z,7.40
2019-03-04T04:15:57.837Z,7.37
2019-03-04T04:18:36.858Z,5.90
2019-03-04T04:21:06.705Z,5.97
2019-03-04T04:23:36.612Z,5.60
2019-03-04T04:26:08.024Z,5.27
2019-03-04T04:28:37.867Z,5.57
2019-03-04T04:31:07.783Z,4.90
2019-03-04T04:33:37.670Z,5.20
2019-03-04T04:36:07.614Z,5.00
2019-03-04T04:38:37.497Z,5.40
2019-03-04T04:41:08.332Z,5.20
2019-03-04T04:43:38.203Z,5.07
2019-03-04T04:46:08.053Z,5.00
2019-03-04T04:48:38.542Z,5.30
2019-03-04T04:51:09.757Z,5.10
2019-03-04T04:53:39.679Z,4.67
2019-03-04T04:56:11.138Z,4.97
2019-03-04T04:58:41.413Z,5.47
2019-03-04T05:01:11.299Z,5.23
2019-03-04T05:03:41.139Z,5.17
2019-03-04T05:06:13.024Z,5.33
2019-03-04T05:08:42.433Z,5.63
2019-03-04T05:11:12.286Z,5.27
2019-03-04T05:13:42.132Z,5.33
2019-03-04T05:16:12.120Z,5.80
2019-03-04T05:18:41.966Z,5.10
2019-03-04T05:21:11.791Z,4.50
2019-03-04T05:23:41.651Z,4.20
2019-03-04T05:26:11.586Z,4.20
2019-03-04T05:28:41.474Z,4.20
2019-03-04T05:31:11.328Z,4.60
2019-03-04T05:33:41.126Z,4.13
2019-03-04T05:36:10.966Z,4.20
2019-03-04T05:38:40.775Z,4.63
2019-03-04T05:41:12.219Z,4.63
2019-03-04T05:43:42.035Z,5.00
2019-03-04T05:46:11.876Z,5.70
2019-03-04T05:48:41.770Z,5.70
2019-03-04T05:51:11.576Z,5.43
2019-03-04T05:53:41.376Z,5.17
2019-03-04T05:56:11.967Z,6.07
2019-03-04T05:58:41.789Z,5.83
2019-03-04T06:01:17.476Z,6.10
2019-03-04T06:04:03.070Z,6.50
2019-03-04T06:06:49.838Z,6.20
2019-03-04T06:09:19.687Z,6.40
2019-03-04T06:11:49.512Z,6.03
2019-03-04T06:14:19.361Z,7.00
2019-03-04T06:16:49.187Z,6.60
2019-03-04T06:19:19.097Z,6.93
2019-03-04T06:21:49.094Z,6.77
2019-03-04T06:24:19.288Z,6.80
2019-03-04T06:26:49.207Z,7.40
2019-03-04T06:29:20.506Z,6.80
2019-03-04T06:31:50.430Z,7.10
2019-03-04T06:34:20.295Z,6.50
2019-03-04T06:36:50.165Z,6.60
2019-03-04T06:39:20.126Z,7.40
2019-03-04T06:41:50.048Z,6.93
2019-03-04T06:44:19.907Z,7.27
2019-03-04T06:46:49.827Z,8.00
2019-03-04T06:49:24.056Z,7.90
2019-03-04T06:51:53.527Z,7.87
2019-03-04T06:54:39.227Z,7.23
2019-03-04T06:57:12.105Z,7.90
2019-03-04T06:59:50.665Z,7.37
2019-03-04T07:02:32.128Z,7.70
2019-03-04T07:05:20.968Z,8.20
2019-03-04T07:07:50.967Z,7.30
2019-03-04T07:10:22.165Z,8.10
2019-03-04T07:12:52.045Z,8.33
2019-03-04T07:15:21.925Z,7.90
2019-03-04T07:17:51.767Z,7.60
2019-03-04T07:20:22.214Z,7.13
2019-03-04T07:22:52.048Z,7.33
2019-03-04T07:25:21.925Z,6.57
2019-03-04T07:27:51.866Z,6.57
2019-03-04T07:30:21.726Z,5.93
2019-03-04T07:32:52.721Z,6.00
2019-03-04T07:35:22.561Z,6.50
2019-03-04T07:38:01.406Z,5.33
2019-03-04T07:40:32.537Z,5.60
2019-03-04T07:43:02.422Z,5.53
2019-03-04T07:45:33.785Z,5.00
2019-03-04T07:48:03.665Z,5.20
2019-03-04T07:50:33.567Z,5.00
2019-03-04T07:53:03.445Z,4.83
2019-03-04T07:55:33.284Z,5.03
2019-03-04T07:58:03.305Z,5.37
2019-03-04T08:00:33.365Z,5.03
2019-03-04T08:03:03.225Z,5.12
2019-03-04T08:05:36.445Z,5.03
2019-03-04T08:08:08.606Z,4.90
2019-03-04T08:10:57.965Z,6.22
2019-03-04T08:13:33.565Z,6.30
2019-03-04T08:16:03.768Z,5.03
2019-03-04T08:18:33.645Z,5.00
2019-03-04T08:21:03.549Z,4.67
2019-03-04T08:23:33.445Z,5.20
2019-03-04T08:26:03.508Z,5.12
2019-03-04T08:28:33.492Z,4.42
2019-03-04T08:31:05.145Z,4.17
2019-03-04T08:33:38.365Z,4.30
2019-03-04T08:36:10.146Z,5.08
2019-03-04T08:38:40.026Z,5.05
2019-03-04T08:41:11.942Z,4.47
2019-03-04T08:43:44.405Z,4.37
2019-03-04T08:46:16.217Z,3.98
2019-03-04T08:48:48.408Z,4.30
2019-03-04T08:51:18.485Z,3.92
2019-03-04T08:53:48.393Z,4.22
2019-03-04T08:56:18.385Z,3.77
2019-03-04T08:58:50.130Z,4.37
2019-03-04T09:01:20.026Z,4.12
2019-03-04T09:03:49.966Z,4.37
2019-03-04T09:06:19.925Z,4.72
2019-03-04T09:08:49.885Z,4.60
2019-03-04T09:11:19.794Z,4.08
2019-03-04T09:13:49.846Z,4.45
2019-03-04T09:16:19.706Z,4.03
2019-03-04T09:18:51.129Z,4.40
2019-03-04T09:21:21.045Z,4.15
2019-03-04T09:23:51.006Z,3.77
2019-03-04T09:26:20.917Z,3.98
2019-03-04T09:28:51.032Z,4.08
2019-03-04T09:31:22.605Z,4.47
2019-03-04T09:33:52.585Z,3.92
2019-03-04T09:36:22.485Z,4.20
2019-03-04T09:38:52.667Z,5.00
2019-03-04T09:41:22.885Z,4.12
2019-03-04T09:43:52.846Z,4.37
2019-03-04T09:46:23.406Z,4.05
2019-03-04T09:48:54.806Z,3.80
2019-03-04T09:51:26.166Z,3.90
2019-03-04T09:53:57.285Z,3.45
2019-03-04T09:56:27.505Z,4.00
2019-03-04T09:59:00.466Z,3.55
2019-03-04T10:01:33.337Z,4.00
2019-03-04T10:04:08.945Z,3.77
2019-03-04T10:06:59.978Z,3.58
2019-03-04T10:09:32.845Z,3.60
2019-03-04T10:12:32.865Z,4.00
2019-03-04T10:15:11.501Z,4.00
2019-03-04T10:18:04.926Z,3.87
2019-03-04T10:20:46.420Z,3.50
2019-03-04T10:23:46.186Z,3.58
2019-03-04T10:26:37.386Z,3.95
2019-03-04T10:29:30.966Z,4.05
2019-03-04T10:32:16.566Z,3.70
2019-03-04T10:34:58.685Z,3.33
2019-03-04T10:37:50.754Z,3.55
2019-03-04T10:40:40.186Z,4.35
2019-03-04T10:43:34.226Z,3.45
2019-03-04T10:46:16.285Z,3.65
2019-03-04T10:48:46.297Z,3.83
2019-03-04T10:51:17.082Z,3.60
2019-03-04T10:53:48.146Z,3.30
2019-03-04T10:56:18.398Z,3.15
2019-03-04T10:58:48.289Z,4.03
2019-03-04T11:01:18.170Z,4.03
2019-03-04T11:03:48.005Z,3.58
2019-03-04T11:06:17.946Z,3.50
2019-03-04T11:08:47.825Z,3.42
2019-03-04T11:11:17.726Z,3.12
2019-03-04T11:13:48.606Z,3.12
2019-03-04T11:16:18.506Z,4.00
2019-03-04T11:18:50.362Z,3.40
2019-03-04T11:21:21.393Z,3.65
2019-03-04T11:23:53.485Z,2.85
2019-03-04T11:26:23.485Z,3.15
2019-03-04T11:28:53.713Z,3.37
2019-03-04T11:31:23.577Z,3.37
2019-03-04T11:33:53.586Z,3.12
2019-03-04T11:36:23.446Z,3.08
2019-03-04T11:38:56.325Z,3.12
2019-03-04T11:41:26.226Z,3.45
2019-03-04T11:43:57.347Z,3.22
2019-03-04T11:46:27.246Z,2.98
2019-03-04T11:48:58.606Z,3.00
2019-03-04T11:51:28.985Z,3.50
2019-03-04T11:53:58.846Z,2.87
2019-03-04T11:56:31.817Z,2.77
2019-03-04T11:59:01.645Z,3.83
2019-03-04T12:01:33.150Z,2.70
2019-03-04T12:04:03.249Z,2.70
2019-03-04T12:06:34.765Z,2.55
2019-03-04T12:09:09.006Z,2.98
2019-03-04T12:11:40.506Z,3.10
2019-03-04T12:14:10.346Z,2.67
2019-03-04T12:16:41.287Z,2.50
2019-03-04T12:19:11.305Z,2.60
2019-03-04T12:21:41.218Z,2.80
2019-03-04T12:24:11.332Z,2.87
2019-03-04T12:26:42.850Z,2.70
2019-03-04T12:29:12.885Z,2.65
2019-03-04T12:31:44.469Z,2.60
2019-03-04T12:34:24.382Z,2.35
2019-03-04T12:36:47.926Z,2.90
2019-03-04T12:39:17.886Z,2.80
2019-03-04T12:41:49.678Z,2.55
2019-03-04T12:44:19.290Z,2.75
2019-03-04T12:46:49.210Z,2.85
2019-03-04T12:49:19.042Z,2.98
2019-03-04T12:51:49.209Z,2.85
2019-03-04T12:54:20.190Z,2.50
2019-03-04T12:56:50.117Z,2.52
2019-03-04T12:59:19.949Z,2.65
2019-03-04T13:01:50.095Z,2.62
2019-03-04T13:04:21.117Z,2.52
2019-03-04T13:06:51.346Z,2.60
2019-03-04T13:09:21.245Z,2.80
2019-03-04T13:11:51.109Z,2.70
2019-03-04T13:14:21.150Z,2.15
2019-03-04T13:16:52.471Z,2.50
2019-03-04T13:19:22.624Z,2.40
2019-03-04T13:21:52.773Z,2.25
2019-03-04T13:24:23.052Z,2.77
2019-03-04T13:26:54.251Z,2.27
2019-03-04T13:29:24.371Z,1.85
2019-03-04T13:31:54.412Z,2.33
2019-03-04T13:34:24.451Z,2.22
2019-03-04T13:36:54.576Z,1.95
2019-03-04T13:39:24.656Z,2.40
2019-03-04T13:41:54.732Z,2.25
2019-03-04T13:44:24.812Z,2.33
2019-03-04T13:46:56.213Z,2.20
2019-03-04T13:49:26.135Z,2.12
2019-03-04T13:51:57.931Z,2.50
2019-03-04T13:54:31.095Z,2.52
2019-03-04T13:57:02.291Z,2.58
2019-03-04T13:59:32.331Z,2.87
2019-03-04T14:02:02.456Z,2.37
2019-03-04T14:04:32.576Z,2.45
2019-03-04T14:07:02.777Z,1.92
2019-03-04T14:12:43.851Z,2.10
2019-03-04T14:15:25.402Z,2.60
2019-03-04T14:17:59.052Z,2.37
2019-03-04T14:20:30.531Z,2.30
2019-03-04T14:23:00.501Z,2.70
2019-03-04T14:25:33.564Z,2.33
2019-03-04T14:28:03.974Z,3.02
2019-03-04T14:30:34.251Z,3.40
2019-03-04T14:33:05.417Z,3.08
2019-03-04T14:35:35.616Z,2.62
2019-03-04T14:38:05.922Z,2.70
2019-03-04T14:40:36.135Z,2.90
2019-03-04T14:43:06.496Z,2.87
2019-03-04T14:45:37.931Z,3.80
2019-03-04T14:48:08.372Z,3.80
2019-03-04T14:50:42.091Z,3.60
2019-03-04T14:53:12.691Z,3.90
2019-03-04T14:55:43.613Z,3.47
2019-03-04T14:58:14.015Z,3.25
2019-03-04T15:00:45.936Z,3.35
2019-03-04T15:03:23.119Z,3.37
2019-03-04T15:05:48.332Z,3.00
2019-03-04T15:08:23.972Z,3.40
2019-03-04T15:10:56.896Z,4.10
2019-03-04T15:13:27.003Z,3.37
2019-03-04T15:16:02.583Z,3.25
2019-03-04T15:18:42.218Z,3.02
2019-03-04T15:21:12.455Z,3.45
2019-03-04T15:23:44.411Z,5.10
2019-03-04T15:26:14.931Z,3.17
2019-03-04T15:28:45.052Z,4.08
2019-03-04T15:31:15.255Z,5.25
2019-03-04T15:33:45.491Z,3.35
2019-03-04T15:36:15.726Z,3.87
2019-03-04T15:38:47.695Z,3.77
2019-03-04T15:41:18.053Z,4.60
2019-03-04T15:43:48.269Z,4.03
2019-03-04T15:46:18.653Z,4.30
2019-03-04T15:48:50.211Z,4.20
2019-03-04T15:51:22.814Z,3.92
2019-03-04T15:53:54.897Z,4.28
2019-03-04T15:56:30.094Z,3.70
2019-03-04T15:59:01.777Z,4.58
2019-03-04T16:01:37.014Z,4.58
2019-03-04T16:04:08.696Z,5.72
2019-03-04T16:06:39.051Z,7.08
2019-03-04T16:09:18.851Z,6.00
2019-03-04T16:11:50.424Z,6.20
2019-03-04T16:14:22.162Z,5.95
2019-03-04T16:16:54.574Z,7.05
2019-03-04T16:19:24.811Z,6.67
2019-03-04T16:21:55.051Z,6.33
2019-03-04T16:24:25.452Z,6.35
2019-03-04T16:26:55.781Z,6.28
2019-03-04T16:29:26.224Z,7.97
2019-03-04T16:31:57.212Z,9.38
2019-03-04T16:34:27.531Z,8.18
2019-03-04T16:37:03.735Z,10.95
2019-03-04T16:39:35.413Z,10.95
2019-03-04T16:42:09.214Z,11.20
2019-03-04T16:44:40.101Z,13.58
2019-03-04T16:47:11.972Z,14.50
2019-03-04T16:49:45.598Z,16.50
2019-03-04T16:52:15.459Z,15.68
2019-03-04T16:54:48.772Z,14.10
2019-03-04T16:57:24.415Z,11.40
2019-03-04T16:59:56.332Z,10.60
2019-03-04T17:02:28.691Z,11.75
2019-03-04T17:05:00.660Z,9.60
2019-03-04T17:07:36.412Z,10.88
2019-03-04T17:10:13.252Z,10.10
2019-03-04T17:12:43.692Z,11.25
2019-03-04T17:15:21.093Z,11.65
2019-03-04T17:17:51.771Z,13.68
2019-03-04T17:20:22.252Z,13.20
2019-03-04T17:22:52.738Z,12.93
2019-03-04T17:25:26.499Z,11.28
2019-03-04T17:27:56.943Z,12.88
2019-03-04T17:30:29.136Z,13.53
2019-03-04T17:32:59.580Z,12.30
2019-03-04T17:35:31.377Z,13.20
2019-03-04T17:38:06.853Z,13.98
2019-03-04T17:40:43.412Z,14.85
2019-03-04T17:43:16.771Z,14.73
2019-03-04T17:45:47.092Z,14.70
2019-03-04T17:48:18.925Z,15.65
2019-03-04T17:50:49.232Z,18.23
2019-03-04T17:53:21.009Z,16.55
2019-03-04T17:55:51.280Z,16.55
2019-03-04T17:58:23.391Z,16.87
2019-03-04T18:00:57.328Z,16.57
2019-03-04T18:03:27.823Z,17.23
2019-03-04T18:06:02.675Z,17.05
2019-03-04T18:08:32.227Z,17.73
2019-03-04T18:11:04.034Z,16.60
2019-03-04T18:13:38.574Z,17.50
2019-03-04T18:16:08.617Z,16.57
2019-03-04T18:18:40.278Z,16.32
2019-03-04T18:21:11.075Z,14.73
2019-03-04T18:23:42.634Z,14.68
2019-03-04T18:26:24.402Z,16.48
2019-03-04T18:29:09.996Z,15.08
2019-03-04T18:31:48.633Z,16.30
2019-03-04T18:34:43.991Z,15.30
2019-03-04T18:37:45.419Z,16.55
2019-03-04T18:40:41.143Z,15.50
2019-03-04T18:43:31.843Z,15.48
2019-03-04T18:46:22.712Z,14.75
2019-03-04T18:48:57.876Z,13.28
2019-03-04T18:51:28.542Z,13.13
2019-03-04T18:54:02.355Z,11.43
2019-03-04T18:56:33.280Z,12.20
2019-03-04T18:59:05.557Z,11.73
2019-03-04T19:01:36.307Z,11.43
2019-03-04T19:04:07.179Z,10.90
2019-03-04T19:06:37.817Z,10.08
2019-03-04T19:09:10.072Z,10.25
2019-03-04T19:11:44.340Z,10.45
2019-03-04T19:14:18.645Z,9.50
2019-03-04T19:16:50.602Z,8.68
2019-03-04T19:19:21.815Z,11.45
2019-03-04T19:21:59.782Z,17.77
2019-03-04T19:24:30.134Z,21.27
2019-03-04T19:27:07.726Z,22.48
2019-03-04T19:29:39.708Z,17.95
2019-03-04T19:32:09.780Z,14.70
2019-03-04T19:34:39.926Z,14.13
2019-03-04T19:37:10.531Z,14.00
2019-03-04T19:39:43.819Z,11.07
2019-03-04T19:42:23.567Z,9.10
2019-03-04T19:45:15.247Z,8.37
2019-03-04T19:47:49.860Z,7.10
2019-03-04T19:50:31.164Z,7.10
2019-03-04T19:53:23.884Z,8.23
2019-03-04T19:55:59.631Z,9.37
2019-03-04T19:58:34.879Z,8.13
2019-03-04T20:01:07.687Z,9.27
2019-03-04T20:03:44.847Z,8.40
2019-03-04T20:06:18.214Z,8.00
2019-03-04T20:08:55.255Z,8.03
2019-03-04T20:11:27.411Z,8.23
2019-03-04T20:13:59.302Z,6.90
2019-03-04T20:16:32.568Z,6.40
2019-03-04T20:19:02.886Z,6.80
2019-03-04T20:21:33.114Z,5.40
2019-03-04T20:24:06.217Z,4.23
2019-03-04T20:26:37.887Z,3.67
2019-03-04T20:29:09.312Z,4.30
2019-03-04T20:31:40.899Z,3.43
2019-03-04T20:34:12.480Z,2.80
2019-03-04T20:36:42.859Z,3.43
2019-03-04T20:39:17.027Z,2.87
2019-03-04T20:41:48.395Z,2.60
2019-03-04T20:44:18.806Z,3.20
2019-03-04T20:46:49.638Z,2.83
2019-03-04T20:49:21.334Z,3.17
2019-03-04T20:51:51.658Z,2.70
2019-03-04T20:54:23.167Z,2.47
2019-03-04T20:57:33.901Z,3.27
2019-03-04T20:59:54.920Z,2.90
2019-03-04T21:02:29.998Z,3.03
2019-03-04T21:05:05.564Z,2.93
2019-03-04T21:07:36.203Z,2.80
2019-03-04T21:10:30.151Z,3.37
2019-03-04T21:13:14.051Z,3.03
2019-03-04T21:15:45.838Z,3.30
2019-03-04T21:18:16.003Z,3.60
2019-03-04T21:20:46.611Z,3.43
2019-03-04T21:23:17.770Z,3.67
2019-03-04T21:26:05.130Z,3.73
2019-03-04T21:29:01.526Z,4.03
2019-03-04T21:31:58.828Z,4.53
2019-03-04T21:34:37.562Z,4.40
2019-03-04T21:37:19.466Z,4.83
2019-03-04T21:39:52.263Z,4.20
2019-03-04T21:42:30.239Z,4.50
2019-03-04T21:45:37.589Z,4.90
2019-03-04T21:48:13.584Z,4.93
2019-03-04T21:51:08.171Z,4.57
2019-03-04T21:53:43.859Z,4.90
2019-03-04T21:56:18.232Z,5.03
2019-03-04T21:58:50.410Z,4.63
2019-03-04T22:01:27.397Z,4.93
2019-03-04T22:03:59.858Z,4.90
2019-03-04T22:06:31.417Z,5.37
2019-03-04T22:09:02.326Z,5.03
2019-03-04T22:11:36.198Z,5.93
2019-03-04T22:14:05.525Z,5.83
2019-03-04T22:16:36.932Z,5.60
2019-03-04T22:19:08.890Z,6.90
2019-03-04T22:21:38.840Z,6.30
2019-03-04T22:24:09.760Z,6.67
2019-03-04T22:26:39.800Z,6.10
2019-03-04T22:29:09.753Z,6.40
2019-03-04T22:31:39.803Z,7.67
2019-03-04T22:34:13.213Z,8.57
2019-03-04T22:36:43.090Z,7.77
2019-03-04T22:39:13.098Z,7.30
2019-03-04T22:41:43.368Z,7.00
2019-03-04T22:44:14.811Z,7.60
2019-03-04T22:46:44.673Z,7.33
2019-03-04T22:49:14.570Z,7.10
2019-03-04T22:51:44.502Z,7.83
2019-03-04T22:54:14.410Z,8.10
2019-03-04T22:56:44.282Z,8.30
2019-03-04T22:59:14.270Z,7.83
2019-03-04T23:01:47.481Z,7.87
2019-03-04T23:04:19.267Z,6.80
2019-03-04T23:07:03.443Z,6.23
2019-03-04T23:09:42.372Z,6.13
2019-03-04T23:12:23.523Z,5.57
2019-03-04T23:14:53.705Z,5.67
2019-03-04T23:17:23.543Z,5.70
2019-03-04T23:19:53.414Z,5.20
2019-03-04T23:22:23.291Z,5.30
2019-03-04T23:24:59.442Z,5.37
2019-03-04T23:27:30.810Z,6.03
2019-03-04T23:30:00.701Z,5.70
2019-03-04T23:32:49.805Z,6.00
2019-03-04T23:35:19.649Z,6.03
2019-03-04T23:37:49.583Z,6.20
2019-03-04T23:40:19.458Z,6.47
2019-03-04T23:42:49.305Z,5.53
2019-03-04T23:45:19.093Z,5.87
2019-03-04T23:47:48.949Z,5.70
2019-03-04T23:50:23.958Z,5.30
2019-03-04T23:52:53.796Z,4.90
2019-03-04T23:55:23.717Z,4.90
2019-03-04T23:57:53.508Z,4.50
